Main page
METAR-TAF:

METAR-TAF

Airports :

Houari Boumediene Airport

Algiers, Algeria

latitude: 36-43N, longitude: 003-15E, elevation: 25 m

Current weather observation

The report was made 11 minutes ago, at 21:30 UTC
Wind 3 kt from the South/Southeast
Temperature 15°C
Humidity 88%
Pressure 1017 hPa
Visibility 10 km or more
Few clouds at a height of 2300 ft

METAR: DAAG 282130Z 15003KT 9999 FEW023 15/13 Q1017

Time: 22:41 (21:41 UTC)

Forecast

The report was made 4 hours and 41 minutes ago, at 17:00 UTC
Forecast valid from 28 at 18 UTC to 29 at 18 UTC
Wind 8 kt from the Northeast
Visibility 10 km or more
Few clouds at a height of 2000 ft
Scattered clouds at a height of 20000 ft
Temporary
from 28 at 18 UTC to 28 at 24 UTC
Few clouds at a height of 2300 ft, Towering cumulus.
Probability 30% :
Temporary
from 29 at 00 UTC to 29 at 06 UTC
Visibility: 4000 m
mist

TAF: DAAG 281700Z 2818/2918 04008KT 9999 FEW020 SCT200 TEMPO 2818/2824 FEW023TCU PROB30 TEMPO 2900/2906 4000 BR

Weather observations and forecasts of more than 4000 airports (METAR and TAF reports).

The available stations are represented by yellow and red dots on the map.

Hover mouse over dot to see the name of the station.

Then click to see weather observations and forecasts.

To change the map : click on the green buttons with a black cross to zoom in, on the green button with a dash to zoom out, or on the green arrows for adjacent maps.


METAR-TAF: